Time;durP1;ratioP1;P1;durP2;ratioP2;P2;SDS_P1;SDS_P2;PMS_P1;PMS_P2;Temp;Humidity;BMP_temperature;BMP_pressure;BME280_temperature;BME280_humidity;BME280_pressure;Samples;Min_cycle;Max_cycle;Signal;HPM_P1;HPM_P2
2022/06/23 00:00:46;;;;;;;6.93;3.50;;;;;;;;;;4980078;28;20375;-65
2022/06/23 00:03:18;;;;;;;5.55;3.20;;;;;;;;;;4978648;28;20534;-65
2022/06/23 00:05:47;;;;;;;5.90;3.55;;;;;;;;;;4979996;28;20402;-65
2022/06/23 00:08:15;;;;;;;6.22;3.38;;;;;;;;;;4980029;28;20145;-65
2022/06/23 00:10:45;;;;;;;6.25;3.80;;;;;;;;;;4978081;28;20053;-65
2022/06/23 00:13:13;;;;;;;5.75;3.72;;;;;;;;;;4980239;28;20046;-65
2022/06/23 00:15:41;;;;;;;4.65;3.53;;;;;;;;;;4979179;28;20065;-65
2022/06/23 00:18:16;;;;;;;5.28;3.95;;;;;;;;;;4980312;28;20077;-65
2022/06/23 00:20:42;;;;;;;6.47;3.70;;;;;;;;;;4976888;28;20052;-65
2022/06/23 00:23:15;;;;;;;5.70;3.75;;;;;;;;;;4960853;28;20127;-65
2022/06/23 00:25:42;;;;;;;;;;;;;;;;;;4979816;28;20451;-65
2022/06/23 00:28:17;;;;;;;7.05;4.40;;;;;;;;;;4979909;28;19929;-65
2022/06/23 00:30:43;;;;;;;8.18;4.72;;;;;;;;;;4980065;28;20061;-65
2022/06/23 00:33:18;;;;;;;7.57;5.13;;;;;;;;;;4962744;28;20525;-66
2022/06/23 00:35:45;;;;;;;6.57;5.22;;;;;;;;;;4963509;28;20893;-65
2022/06/23 00:38:18;;;;;;;7.97;5.65;;;;;;;;;;4982279;28;20173;-65
2022/06/23 00:40:44;;;;;;;8.20;5.72;;;;;;;;;;4962111;28;20139;-65
2022/06/23 00:43:11;;;;;;;7.72;5.32;;;;;;;;;;4977595;28;20054;-65
2022/06/23 00:45:40;;;;;;;7.53;6.00;;;;;;;;;;4981485;28;20382;-65
2022/06/23 00:48:12;;;;;;;9.73;6.03;;;;;;;;;;4983135;28;20137;-65
2022/06/23 00:50:45;;;;;;;8.30;5.40;;;;;;;;;;4980891;28;20038;-65
2022/06/23 00:53:12;;;;;;;11.13;6.43;;;;;;;;;;4982920;28;20129;-65
2022/06/23 00:55:41;;;;;;;8.80;5.78;;;;;;;;;;4981381;28;20072;-65
2022/06/23 00:58:24;;;;;;;10.98;6.55;;;;;;;;;;4982249;28;20133;-65
2022/06/23 01:00:52;;;;;;;8.25;6.10;;;;;;;;;;4981454;28;20497;-65
2022/06/23 01:03:22;;;;;;;8.25;6.30;;;;;;;;;;4980444;28;20050;-65
2022/06/23 01:05:53;;;;;;;7.97;5.95;;;;;;;;;;4970666;28;20598;-65
2022/06/23 01:08:29;;;;;;;9.95;6.38;;;;;;;;;;4979748;28;20046;-65
2022/06/23 01:11:00;;;;;;;8.55;6.55;;;;;;;;;;4982395;28;20050;-65
2022/06/23 01:13:30;;;;;;;8.95;7.18;;;;;;;;;;4965231;28;20149;-65
2022/06/23 01:16:01;;;;;;;7.80;6.68;;;;;;;;;;4983358;28;20443;-65
2022/06/23 01:18:32;;;;;;;11.27;7.85;;;;;;;;;;4964704;28;20050;-65
2022/06/23 01:21:07;;;;;;;13.00;7.80;;;;;;;;;;4984514;28;20121;-65
2022/06/23 01:23:50;;;;;;;10.57;8.02;;;;;;;;;;4981036;28;20042;-65
2022/06/23 01:26:27;;;;;;;10.52;8.10;;;;;;;;;;4966593;28;20125;-65
2022/06/23 01:29:03;;;;;;;9.98;7.88;;;;;;;;;;4979048;28;20044;-65
2022/06/23 01:31:38;;;;;;;10.10;7.90;;;;;;;;;;4958376;28;20129;-65
2022/06/23 01:34:09;;;;;;;11.55;8.70;;;;;;;;;;4962223;28;20047;-65
2022/06/23 01:36:37;;;;;;;10.88;7.95;;;;;;;;;;4980369;28;20099;-65
2022/06/23 01:39:07;;;;;;;11.00;8.05;;;;;;;;;;4983373;28;20607;-65
2022/06/23 01:41:46;;;;;;;10.95;8.00;;;;;;;;;;4980557;28;20064;-65
2022/06/23 01:44:22;;;;;;;10.50;8.13;;;;;;;;;;4970128;28;20062;-65
2022/06/23 01:46:49;;;;;;;10.20;8.18;;;;;;;;;;4982779;28;20072;-65
2022/06/23 01:49:19;;;;;;;10.35;8.10;;;;;;;;;;4975143;28;21784;-65
2022/06/23 01:51:48;;;;;;;10.18;8.40;;;;;;;;;;4974610;28;20140;-65
2022/06/23 01:54:17;;;;;;;10.95;8.52;;;;;;;;;;4975437;28;20068;-65
2022/06/23 01:56:45;;;;;;;10.35;8.23;;;;;;;;;;4958218;28;20489;-65
2022/06/23 01:59:15;;;;;;;11.02;8.55;;;;;;;;;;4976676;28;20449;-65
2022/06/23 02:01:44;;;;;;;11.57;8.65;;;;;;;;;;4984293;28;20054;-65
2022/06/23 02:04:14;;;;;;;11.77;8.70;;;;;;;;;;4980270;28;20039;-65
2022/06/23 02:06:44;;;;;;;11.70;8.68;;;;;;;;;;4977781;28;20126;-65
2022/06/23 02:09:17;;;;;;;11.32;8.18;;;;;;;;;;4981565;28;20054;-65
2022/06/23 02:11:45;;;;;;;11.20;8.80;;;;;;;;;;4977043;28;20049;-65
2022/06/23 02:14:19;;;;;;;12.13;8.68;;;;;;;;;;5021125;28;20057;-65
2022/06/23 02:16:45;;;;;;;13.13;9.27;;;;;;;;;;5035345;28;20059;-65
2022/06/23 02:19:21;;;;;;;13.65;8.85;;;;;;;;;;5036728;28;20080;-65
2022/06/23 02:22:06;;;;;;;13.90;9.50;;;;;;;;;;5037320;28;20041;-65
2022/06/23 02:24:38;;;;;;;11.70;9.05;;;;;;;;;;5039125;28;20066;-65
2022/06/23 02:27:22;;;;;;;14.45;10.15;;;;;;;;;;5037328;28;20052;-65
2022/06/23 02:30:01;;;;;;;11.10;8.95;;;;;;;;;;5041791;28;20041;-65
2022/06/23 02:32:43;;;;;;;9.98;8.75;;;;;;;;;;5036469;28;20051;-65
2022/06/23 02:35:13;;;;;;;13.48;9.15;;;;;;;;;;5042467;28;20180;-65
2022/06/23 02:37:51;;;;;;;12.45;9.15;;;;;;;;;;5038821;28;20143;-65
2022/06/23 02:40:24;;;;;;;11.75;9.63;;;;;;;;;;5039488;28;20493;-65
2022/06/23 02:42:54;;;;;;;11.88;10.15;;;;;;;;;;5038225;28;20083;-65
2022/06/23 02:45:26;;;;;;;12.15;9.40;;;;;;;;;;5041391;28;20536;-65
2022/06/23 02:48:00;;;;;;;12.25;9.90;;;;;;;;;;5039587;28;20045;-65
2022/06/23 02:50:38;;;;;;;14.30;10.07;;;;;;;;;;5040493;28;20370;-65
2022/06/23 02:53:17;;;;;;;12.77;10.45;;;;;;;;;;5047199;28;20044;-65
2022/06/23 02:55:47;;;;;;;12.25;9.50;;;;;;;;;;5039219;28;21212;-65
2022/06/23 02:58:17;;;;;;;12.82;10.35;;;;;;;;;;5036861;28;20093;-65
2022/06/23 03:00:47;;;;;;;12.95;10.50;;;;;;;;;;5035490;28;20038;-65
2022/06/23 03:03:15;;;;;;;12.38;9.68;;;;;;;;;;5036282;28;20044;-65
2022/06/23 03:05:46;;;;;;;14.10;10.52;;;;;;;;;;5039000;28;20051;-65
2022/06/23 03:08:24;;;;;;;13.05;10.52;;;;;;;;;;5041333;28;20053;-65
2022/06/23 03:10:55;;;;;;;14.75;10.55;;;;;;;;;;5043265;28;20456;-65
2022/06/23 03:13:27;;;;;;;16.38;10.10;;;;;;;;;;5017003;28;20058;-65
2022/06/23 03:15:56;;;;;;;13.75;10.77;;;;;;;;;;4964278;28;20516;-65
2022/06/23 03:18:28;;;;;;;15.43;11.07;;;;;;;;;;4978012;28;20129;-65
2022/06/23 03:20:55;;;;;;;14.70;10.30;;;;;;;;;;4961009;28;20042;-65
2022/06/23 03:23:34;;;;;;;14.35;11.60;;;;;;;;;;4989794;28;20057;-65
2022/06/23 03:26:06;;;;;;;13.20;10.48;;;;;;;;;;4986697;28;20102;-66
2022/06/23 03:28:35;;;;;;;12.25;9.65;;;;;;;;;;4983174;28;20059;-65
2022/06/23 03:31:06;;;;;;;14.85;11.13;;;;;;;;;;4980497;28;20078;-65
2022/06/23 03:33:42;;;;;;;13.65;10.50;;;;;;;;;;4970722;28;20862;-65
2022/06/23 03:36:24;;;;;;;11.98;9.85;;;;;;;;;;4981099;28;20066;-65
2022/06/23 03:41:49;;;;;;;12.23;10.15;;;;;;;;;;4965275;28;20541;-65
2022/06/23 03:44:22;;;;;;;13.85;11.05;;;;;;;;;;4981102;28;20062;-65
2022/06/23 03:47:01;;;;;;;11.75;9.68;;;;;;;;;;4980501;28;20050;-65
2022/06/23 03:49:38;;;;;;;14.95;10.95;;;;;;;;;;4963749;28;20517;-65
2022/06/23 03:52:06;;;;;;;14.88;11.05;;;;;;;;;;4965332;28;20146;-65
2022/06/23 03:54:37;;;;;;;16.42;10.88;;;;;;;;;;4981292;28;20078;-65
2022/06/23 03:57:06;;;;;;;14.88;10.50;;;;;;;;;;4964347;28;20118;-65
2022/06/23 03:59:37;;;;;;;13.18;10.93;;;;;;;;;;4981660;28;20598;-65
2022/06/23 04:02:05;;;;;;;12.80;10.10;;;;;;;;;;4980660;28;20038;-65
2022/06/23 04:04:43;;;;;;;12.55;9.85;;;;;;;;;;4985098;28;20091;-65
2022/06/23 04:07:32;;;;;;;13.52;10.48;;;;;;;;;;4986536;28;20046;-66
2022/06/23 04:10:01;;;;;;;13.40;11.25;;;;;;;;;;4979956;28;20436;-65
2022/06/23 04:12:29;;;;;;;15.30;10.48;;;;;;;;;;4980452;28;20046;-65
2022/06/23 04:14:58;;;;;;;15.98;11.57;;;;;;;;;;4983275;28;20057;-67
2022/06/23 04:17:33;;;;;;;14.23;10.93;;;;;;;;;;4973550;28;20145;-65
2022/06/23 04:20:01;;;;;;;15.45;10.75;;;;;;;;;;4963604;28;20050;-65
2022/06/23 04:22:38;;;;;;;13.20;10.75;;;;;;;;;;4963756;28;20157;-65
2022/06/23 04:25:06;;;;;;;14.02;10.63;;;;;;;;;;4978464;28;20316;-65
2022/06/23 04:27:38;;;;;;;14.55;11.20;;;;;;;;;;4979519;28;20046;-65
2022/06/23 04:30:06;;;;;;;17.13;12.15;;;;;;;;;;4978838;28;20038;-65
2022/06/23 04:32:34;;;;;;;13.98;11.57;;;;;;;;;;4977932;28;20125;-65
2022/06/23 04:35:08;;;;;;;15.27;11.32;;;;;;;;;;4979047;28;20401;-65
2022/06/23 04:37:40;;;;;;;14.98;10.93;;;;;;;;;;4978871;28;20390;-65
2022/06/23 04:40:26;;;;;;;15.57;11.20;;;;;;;;;;4961910;28;20047;-65
2022/06/23 04:42:57;;;;;;;17.45;12.15;;;;;;;;;;4978324;28;20053;-65
2022/06/23 04:45:27;;;;;;;15.65;11.65;;;;;;;;;;4981283;28;20046;-65
2022/06/23 04:47:55;;;;;;;15.85;11.80;;;;;;;;;;4958183;28;20141;-63
2022/06/23 04:50:34;;;;;;;14.73;11.57;;;;;;;;;;4982330;28;20050;-64
2022/06/23 04:53:01;;;;;;;16.88;11.57;;;;;;;;;;4980995;28;20525;-65
2022/06/23 04:55:29;;;;;;;15.38;10.80;;;;;;;;;;4966138;28;20062;-65
2022/06/23 04:57:55;;;;;;;19.58;11.52;;;;;;;;;;4967849;28;20242;-65
2022/06/23 05:00:23;;;;;;;16.52;10.98;;;;;;;;;;4981888;28;20038;-65
2022/06/23 05:02:52;;;;;;;15.95;11.52;;;;;;;;;;4983282;28;20488;-65
2022/06/23 05:05:21;;;;;;;13.82;11.05;;;;;;;;;;4965707;28;20573;-64
2022/06/23 05:07:47;;;;;;;14.25;10.63;;;;;;;;;;4961617;28;20468;-65
2022/06/23 05:10:24;;;;;;;13.88;10.20;;;;;;;;;;4982674;28;20046;-64
2022/06/23 05:12:54;;;;;;;12.20;9.77;;;;;;;;;;4981091;28;20077;-64
2022/06/23 05:15:24;;;;;;;18.20;11.63;;;;;;;;;;4965363;28;20061;-64
2022/06/23 05:17:53;;;;;;;13.43;9.75;;;;;;;;;;4963987;28;20132;-64
2022/06/23 05:20:21;;;;;;;13.82;10.32;;;;;;;;;;4962306;28;20485;-64
2022/06/23 05:22:47;;;;;;;15.82;9.82;;;;;;;;;;4977744;28;20063;-64
2022/06/23 05:25:28;;;;;;;14.35;9.88;;;;;;;;;;4980569;28;20050;-64
2022/06/23 05:27:54;;;;;;;12.30;9.75;;;;;;;;;;4980044;28;20118;-64
2022/06/23 05:30:29;;;;;;;13.80;9.90;;;;;;;;;;4983315;28;20078;-64
2022/06/23 05:32:59;;;;;;;15.38;9.30;;;;;;;;;;4983346;28;20050;-64
2022/06/23 05:35:27;;;;;;;13.80;9.98;;;;;;;;;;4964829;28;20085;-64
2022/06/23 05:38:00;;;;;;;16.50;9.70;;;;;;;;;;4983114;28;20401;-64
2022/06/23 05:40:30;;;;;;;12.00;8.90;;;;;;;;;;4981727;28;20371;-64
2022/06/23 05:43:00;;;;;;;15.48;9.98;;;;;;;;;;4985552;28;20122;-64
2022/06/23 05:45:28;;;;;;;14.75;10.18;;;;;;;;;;4985365;28;20222;-63
2022/06/23 05:47:54;;;;;;;16.35;10.13;;;;;;;;;;4985711;28;20050;-64
2022/06/23 05:50:24;;;;;;;15.93;10.50;;;;;;;;;;4982859;28;20042;-64
2022/06/23 05:52:55;;;;;;;12.55;9.15;;;;;;;;;;4984723;28;20054;-63
2022/06/23 05:55:31;;;;;;;12.23;9.13;;;;;;;;;;4984604;28;20237;-63
2022/06/23 05:58:03;;;;;;;15.50;9.57;;;;;;;;;;4985392;28;20131;-63
2022/06/23 06:00:33;;;;;;;15.98;10.80;;;;;;;;;;4980650;28;20042;-64
2022/06/23 06:02:59;;;;;;;15.65;9.88;;;;;;;;;;4982419;28;20126;-64
2022/06/23 06:05:34;;;;;;;12.75;9.43;;;;;;;;;;4985537;28;20046;-64
2022/06/23 06:08:01;;;;;;;16.40;10.88;;;;;;;;;;4986412;28;20404;-63
2022/06/23 06:10:29;;;;;;;13.20;10.35;;;;;;;;;;4984133;28;20468;-64
2022/06/23 06:12:56;;;;;;;14.88;10.98;;;;;;;;;;4984444;28;20058;-64
2022/06/23 06:15:23;;;;;;;17.25;10.20;;;;;;;;;;4984302;28;20103;-64
2022/06/23 06:17:50;;;;;;;18.20;10.27;;;;;;;;;;4985736;28;20043;-63
2022/06/23 06:20:22;;;;;;;14.05;9.93;;;;;;;;;;4965273;28;20133;-64
2022/06/23 06:22:55;;;;;;;13.25;9.23;;;;;;;;;;4968483;28;20088;-64
2022/06/23 06:25:26;;;;;;;12.32;9.82;;;;;;;;;;4981108;28;20057;-64
2022/06/23 06:27:53;;;;;;;14.80;10.10;;;;;;;;;;4968778;28;20134;-64
2022/06/23 06:30:21;;;;;;;13.25;9.60;;;;;;;;;;4985071;28;20661;-64
2022/06/23 06:32:48;;;;;;;15.73;9.82;;;;;;;;;;4966310;28;20050;-64
2022/06/23 06:35:24;;;;;;;16.20;10.27;;;;;;;;;;4967854;28;20547;-64
2022/06/23 06:37:53;;;;;;;13.38;9.50;;;;;;;;;;4967812;28;20082;-63
2022/06/23 06:40:19;;;;;;;15.23;9.63;;;;;;;;;;4984303;28;20046;-64
2022/06/23 06:42:48;;;;;;;16.05;9.70;;;;;;;;;;4984779;28;20042;-64
2022/06/23 06:45:16;;;;;;;12.63;9.70;;;;;;;;;;4984358;28;20077;-64
2022/06/23 06:47:42;;;;;;;13.00;9.98;;;;;;;;;;4983980;28;20445;-64
2022/06/23 06:50:19;;;;;;;12.98;10.15;;;;;;;;;;4985670;28;20046;-63
2022/06/23 06:52:45;;;;;;;17.60;10.18;;;;;;;;;;4985925;28;20081;-64
2022/06/23 06:55:15;;;;;;;11.75;9.23;;;;;;;;;;4989314;28;20050;-64
2022/06/23 06:57:45;;;;;;;12.00;9.65;;;;;;;;;;4989525;28;20057;-64
2022/06/23 07:00:19;;;;;;;13.38;9.70;;;;;;;;;;4971563;28;20188;-64
2022/06/23 07:02:50;;;;;;;15.77;10.43;;;;;;;;;;4989349;28;20535;-64
2022/06/23 07:05:22;;;;;;;15.32;9.73;;;;;;;;;;4989451;28;20066;-64
2022/06/23 07:07:51;;;;;;;16.05;10.88;;;;;;;;;;4975945;28;20404;-64
2022/06/23 07:10:19;;;;;;;13.95;10.10;;;;;;;;;;4989308;28;20046;-64
2022/06/23 07:12:48;;;;;;;14.02;9.55;;;;;;;;;;4988109;28;20062;-64
2022/06/23 07:15:21;;;;;;;15.20;10.10;;;;;;;;;;4971867;28;20129;-64
2022/06/23 07:17:50;;;;;;;15.57;9.70;;;;;;;;;;4988324;28;20506;-63
2022/06/23 07:20:36;;;;;;;17.77;9.73;;;;;;;;;;4980520;28;20038;-65
2022/06/23 07:23:05;;;;;;;15.70;10.00;;;;;;;;;;4980929;28;20089;-64
2022/06/23 07:25:39;;;;;;;12.57;9.52;;;;;;;;;;4984135;28;20118;-64
2022/06/23 07:28:10;;;;;;;13.77;10.27;;;;;;;;;;4981400;28;20431;-64
2022/06/23 07:30:41;;;;;;;21.42;10.10;;;;;;;;;;4985008;28;20046;-64
2022/06/23 07:33:16;;;;;;;12.50;9.80;;;;;;;;;;4984796;28;20103;-64
2022/06/23 07:35:48;;;;;;;16.83;9.50;;;;;;;;;;4981882;28;20069;-65
2022/06/23 07:38:15;;;;;;;15.02;8.65;;;;;;;;;;4984491;28;20481;-65
2022/06/23 07:40:43;;;;;;;12.45;9.25;;;;;;;;;;4966383;28;20494;-65
2022/06/23 07:43:14;;;;;;;11.60;9.32;;;;;;;;;;4983725;28;20054;-65
2022/06/23 07:45:46;;;;;;;14.15;9.15;;;;;;;;;;4984143;28;20691;-66
2022/06/23 07:48:12;;;;;;;13.45;9.43;;;;;;;;;;4983375;28;20717;-65
2022/06/23 07:50:39;;;;;;;12.82;8.77;;;;;;;;;;4983863;28;20479;-65
2022/06/23 07:53:06;;;;;;;13.98;8.23;;;;;;;;;;4985967;28;20100;-65
2022/06/23 07:55:37;;;;;;;11.15;8.77;;;;;;;;;;4987904;28;20043;-65
2022/06/23 07:58:03;;;;;;;11.52;9.20;;;;;;;;;;4988258;28;20038;-65
2022/06/23 08:00:31;;;;;;;12.13;7.78;;;;;;;;;;4984835;28;20077;-65
2022/06/23 08:03:00;;;;;;;11.52;8.45;;;;;;;;;;4960140;28;20092;-65
2022/06/23 08:05:30;;;;;;;11.85;7.13;;;;;;;;;;4986305;28;20051;-65
2022/06/23 08:07:56;;;;;;;12.38;7.28;;;;;;;;;;4986283;28;20050;-65
2022/06/23 08:10:25;;;;;;;13.73;9.15;;;;;;;;;;4986430;28;20100;-65
2022/06/23 08:13:00;;;;;;;11.38;8.98;;;;;;;;;;4984099;28;20047;-65
2022/06/23 08:18:26;;;;;;;13.68;9.20;;;;;;;;;;4987029;28;20406;-65
2022/06/23 08:21:04;;;;;;;11.05;8.02;;;;;;;;;;4983504;28;20137;-65
2022/06/23 08:23:34;;;;;;;10.85;6.53;;;;;;;;;;4984948;28;20054;-65
2022/06/23 08:26:00;;;;;;;10.30;6.50;;;;;;;;;;4985830;28;20042;-65
2022/06/23 08:28:27;;;;;;;11.95;7.93;;;;;;;;;;4986220;28;20081;-65
2022/06/23 08:30:53;;;;;;;12.95;7.45;;;;;;;;;;4968089;28;20130;-65
2022/06/23 08:33:19;;;;;;;15.00;7.95;;;;;;;;;;4985161;28;20406;-65
2022/06/23 08:35:47;;;;;;;11.98;7.65;;;;;;;;;;4985613;28;20038;-65
2022/06/23 08:38:18;;;;;;;10.98;7.07;;;;;;;;;;4985091;28;20099;-65
2022/06/23 08:41:03;;;;;;;13.52;6.70;;;;;;;;;;4984443;28;20131;-66
2022/06/23 08:43:35;;;;;;;10.55;7.28;;;;;;;;;;4984031;28;20046;-65
2022/06/23 08:46:06;;;;;;;9.75;6.88;;;;;;;;;;4985596;28;20054;-66
2022/06/23 08:48:41;;;;;;;13.48;7.20;;;;;;;;;;4968096;28;20512;-65
2022/06/23 08:51:12;;;;;;;11.23;6.72;;;;;;;;;;4984908;28;20444;-65
2022/06/23 08:53:52;;;;;;;8.65;6.03;;;;;;;;;;4985974;28;20030;-65
2022/06/23 08:56:22;;;;;;;10.40;6.15;;;;;;;;;;4967464;28;20047;-66
2022/06/23 08:58:51;;;;;;;8.75;5.95;;;;;;;;;;4985338;28;20393;-65
2022/06/23 09:01:26;;;;;;;11.45;5.93;;;;;;;;;;4986431;28;20078;-65
2022/06/23 09:04:01;;;;;;;9.05;4.93;;;;;;;;;;4985501;28;20187;-65
2022/06/23 09:06:33;;;;;;;10.38;6.03;;;;;;;;;;4985498;28;20080;-65
2022/06/23 09:09:16;;;;;;;10.03;5.53;;;;;;;;;;4986469;28;20179;-65
2022/06/23 09:11:47;;;;;;;12.07;5.78;;;;;;;;;;4986378;28;20474;-65
2022/06/23 09:14:20;;;;;;;9.27;5.35;;;;;;;;;;4984109;28;20066;-65
2022/06/23 09:17:06;;;;;;;10.52;6.15;;;;;;;;;;4986673;28;20050;-65
2022/06/23 09:19:37;;;;;;;8.07;5.35;;;;;;;;;;4986691;28;20429;-68
2022/06/23 09:22:06;;;;;;;11.00;6.60;;;;;;;;;;4969429;28;20057;-67
2022/06/23 09:24:48;;;;;;;11.23;6.53;;;;;;;;;;4970813;28;20054;-67
2022/06/23 09:27:43;;;;;;;7.03;5.30;;;;;;;;;;4969050;28;20046;-67
2022/06/23 09:30:14;;;;;;;8.32;4.85;;;;;;;;;;4989218;28;20042;-67
2022/06/23 09:32:47;;;;;;;11.55;5.45;;;;;;;;;;4968477;28;20061;-67
2022/06/23 09:35:13;;;;;;;9.15;4.85;;;;;;;;;;4970343;28;20034;-67
2022/06/23 09:37:39;;;;;;;9.63;5.00;;;;;;;;;;4985505;28;20057;-67
2022/06/23 09:40:17;;;;;;;10.82;4.78;;;;;;;;;;4985319;28;20047;-67
2022/06/23 09:43:05;;;;;;;7.40;4.13;;;;;;;;;;4985008;28;20046;-67
2022/06/23 09:45:46;;;;;;;8.80;4.53;;;;;;;;;;4983344;28;20108;-67
2022/06/23 09:48:12;;;;;;;10.32;4.38;;;;;;;;;;4966962;28;20050;-68
2022/06/23 09:50:48;;;;;;;8.30;4.68;;;;;;;;;;4968607;28;20047;-68
2022/06/23 09:53:21;;;;;;;11.80;4.28;;;;;;;;;;4967072;28;20050;-68
2022/06/23 09:56:13;;;;;;;8.23;4.43;;;;;;;;;;4967281;28;20122;-68
2022/06/23 09:58:47;;;;;;;10.25;4.60;;;;;;;;;;4966952;28;20478;-68
2022/06/23 10:01:32;;;;;;;10.82;4.22;;;;;;;;;;4983493;28;20537;-67
2022/06/23 10:04:06;;;;;;;7.22;3.67;;;;;;;;;;4985187;28;20082;-68
2022/06/23 10:06:51;;;;;;;10.05;3.85;;;;;;;;;;4984526;28;20065;-68
2022/06/23 10:09:28;;;;;;;8.48;3.40;;;;;;;;;;4982928;28;20097;-67
2022/06/23 10:12:08;;;;;;;8.10;3.85;;;;;;;;;;4984815;28;20042;-68
2022/06/23 10:14:40;;;;;;;7.63;3.60;;;;;;;;;;4983697;28;20076;-68
2022/06/23 10:17:19;;;;;;;7.60;2.80;;;;;;;;;;4967016;28;20046;-68
2022/06/23 10:20:08;;;;;;;6.63;3.05;;;;;;;;;;4965807;28;20089;-68
2022/06/23 10:22:37;;;;;;;7.07;3.15;;;;;;;;;;4964629;28;20494;-67
2022/06/23 10:25:22;;;;;;;5.72;2.92;;;;;;;;;;4980227;28;20034;-68
2022/06/23 10:28:02;;;;;;;6.65;2.92;;;;;;;;;;4983294;28;20043;-68
2022/06/23 10:30:31;;;;;;;5.97;3.13;;;;;;;;;;4965715;28;20054;-67
2022/06/23 10:33:04;;;;;;;6.38;2.60;;;;;;;;;;4967341;28;20566;-68
2022/06/23 10:35:50;;;;;;;6.30;2.70;;;;;;;;;;4984313;28;21421;-68
2022/06/23 10:38:25;;;;;;;4.93;2.35;;;;;;;;;;4965527;28;20050;-68
2022/06/23 10:41:00;;;;;;;8.45;2.45;;;;;;;;;;4964501;28;20081;-67
2022/06/23 10:43:38;;;;;;;6.50;2.22;;;;;;;;;;4983167;28;20043;-68
2022/06/23 10:46:18;;;;;;;5.45;2.58;;;;;;;;;;4980558;28;20050;-68
2022/06/23 10:48:55;;;;;;;5.65;2.58;;;;;;;;;;4966242;28;20121;-68
2022/06/23 10:51:22;;;;;;;7.72;2.30;;;;;;;;;;4982215;28;20439;-68
2022/06/23 10:54:12;;;;;;;5.18;1.95;;;;;;;;;;4983947;28;20081;-65
2022/06/23 10:56:43;;;;;;;5.80;1.73;;;;;;;;;;4983360;28;20066;-65
2022/06/23 10:59:19;;;;;;;5.10;2.10;;;;;;;;;;4982940;28;20263;-65
2022/06/23 11:01:56;;;;;;;4.20;1.98;;;;;;;;;;4967606;28;20398;-65
2022/06/23 11:04:32;;;;;;;7.93;1.98;;;;;;;;;;4979825;28;20046;-63
2022/06/23 11:07:07;;;;;;;5.53;2.20;;;;;;;;;;4983705;28;20053;-63
2022/06/23 11:09:52;;;;;;;6.50;2.50;;;;;;;;;;4984860;28;20066;-63
2022/06/23 11:12:22;;;;;;;6.45;2.30;;;;;;;;;;4984525;28;20433;-63
2022/06/23 11:15:01;;;;;;;7.10;2.22;;;;;;;;;;4984562;28;20073;-63
2022/06/23 11:17:34;;;;;;;5.20;2.42;;;;;;;;;;4985400;28;20042;-64
2022/06/23 11:20:07;;;;;;;9.27;2.30;;;;;;;;;;4987202;28;20113;-63
2022/06/23 11:22:43;;;;;;;4.28;1.80;;;;;;;;;;4989057;28;20397;-63
2022/06/23 11:25:13;;;;;;;5.93;2.10;;;;;;;;;;4988908;28;20479;-63
2022/06/23 11:27:42;;;;;;;5.20;2.15;;;;;;;;;;4990828;28;20050;-63
2022/06/23 11:30:16;;;;;;;6.47;2.30;;;;;;;;;;4992627;28;20042;-63
2022/06/23 11:33:09;;;;;;;4.80;2.20;;;;;;;;;;4991587;28;20049;-63
2022/06/23 11:35:53;;;;;;;5.13;2.00;;;;;;;;;;4992340;28;20046;-63
2022/06/23 11:38:31;;;;;;;7.25;2.38;;;;;;;;;;4992332;28;20082;-63
2022/06/23 11:41:19;;;;;;;4.47;2.22;;;;;;;;;;4991433;28;20050;-63
2022/06/23 11:43:57;;;;;;;5.00;2.10;;;;;;;;;;4963680;28;20397;-63
2022/06/23 11:46:27;;;;;;;7.57;2.50;;;;;;;;;;4992236;28;20046;-63
2022/06/23 11:49:10;;;;;;;8.45;2.30;;;;;;;;;;4991358;28;20084;-63
2022/06/23 11:51:42;;;;;;;6.63;3.03;;;;;;;;;;4992257;28;20406;-64
2022/06/23 11:54:22;;;;;;;4.95;2.15;;;;;;;;;;4991061;28;20463;-63
2022/06/23 11:56:48;;;;;;;6.10;2.03;;;;;;;;;;4974850;28;20085;-64
2022/06/23 11:59:22;;;;;;;5.13;2.10;;;;;;;;;;4991946;28;20183;-64
2022/06/23 12:01:49;;;;;;;5.57;2.00;;;;;;;;;;4991267;28;20050;-63
2022/06/23 12:04:25;;;;;;;8.45;2.30;;;;;;;;;;4991782;28;20062;-63
2022/06/23 12:07:06;;;;;;;5.47;2.35;;;;;;;;;;4991840;28;20125;-63
2022/06/23 12:09:54;;;;;;;8.15;2.30;;;;;;;;;;4978264;28;20060;-63
2022/06/23 12:12:20;;;;;;;12.95;2.25;;;;;;;;;;4991440;28;20046;-64
2022/06/23 12:14:47;;;;;;;5.40;2.28;;;;;;;;;;4991713;28;20129;-63
2022/06/23 12:17:17;;;;;;;5.40;2.20;;;;;;;;;;4971488;28;20443;-63
2022/06/23 12:20:00;;;;;;;7.30;2.40;;;;;;;;;;4984118;28;20081;-63
2022/06/23 12:22:34;;;;;;;4.82;2.35;;;;;;;;;;4985003;28;20390;-63
2022/06/23 12:25:06;;;;;;;7.90;2.50;;;;;;;;;;4988576;28;20428;-63
2022/06/23 12:27:38;;;;;;;5.35;2.17;;;;;;;;;;4973779;28;20507;-63
2022/06/23 12:30:09;;;;;;;5.57;2.27;;;;;;;;;;4987064;28;20138;-63
2022/06/23 12:32:36;;;;;;;6.50;1.92;;;;;;;;;;4986812;28;20047;-63
2022/06/23 12:35:06;;;;;;;5.45;1.95;;;;;;;;;;4967045;28;20112;-63
2022/06/23 12:37:39;;;;;;;8.93;2.00;;;;;;;;;;4983780;28;20065;-63
2022/06/23 12:40:10;;;;;;;5.68;1.77;;;;;;;;;;4984958;28;20041;-63
2022/06/23 12:42:45;;;;;;;5.18;2.17;;;;;;;;;;4985610;28;20410;-63
2022/06/23 12:45:13;;;;;;;7.28;1.92;;;;;;;;;;4983277;28;20579;-63
2022/06/23 12:47:46;;;;;;;6.78;2.22;;;;;;;;;;4985913;28;20470;-63
2022/06/23 12:50:23;;;;;;;5.43;2.05;;;;;;;;;;4984143;28;20129;-63
2022/06/23 12:52:58;;;;;;;6.97;2.17;;;;;;;;;;4982502;28;20049;-63
2022/06/23 12:55:31;;;;;;;8.63;2.22;;;;;;;;;;4985310;28;20038;-63
2022/06/23 12:58:12;;;;;;;7.22;1.98;;;;;;;;;;4986122;28;20053;-63
2022/06/23 13:00:38;;;;;;;6.28;2.00;;;;;;;;;;4984972;28;20482;-63
2022/06/23 13:03:16;;;;;;;8.10;2.17;;;;;;;;;;4969206;28;20501;-63
2022/06/23 13:05:49;;;;;;;9.75;2.40;;;;;;;;;;4986134;28;20049;-63
2022/06/23 13:08:20;;;;;;;7.10;2.00;;;;;;;;;;4986450;28;20066;-63
2022/06/23 13:10:53;;;;;;;7.43;2.28;;;;;;;;;;4986745;28;20077;-63
2022/06/23 13:13:22;;;;;;;7.00;1.88;;;;;;;;;;4985274;28;20276;-63
2022/06/23 13:15:51;;;;;;;6.70;2.03;;;;;;;;;;4986218;28;20140;-63
2022/06/23 13:18:17;;;;;;;4.20;1.88;;;;;;;;;;4984576;28;20050;-63
2022/06/23 13:20:47;;;;;;;6.57;1.83;;;;;;;;;;4984930;28;20039;-63
2022/06/23 13:23:16;;;;;;;7.35;2.00;;;;;;;;;;4983395;28;20039;-63
2022/06/23 13:25:51;;;;;;;9.27;2.28;;;;;;;;;;4983632;28;20398;-63
2022/06/23 13:28:28;;;;;;;6.68;2.28;;;;;;;;;;4985575;28;20130;-63
2022/06/23 13:30:56;;;;;;;7.47;1.80;;;;;;;;;;4985019;28;20051;-63
2022/06/23 13:33:28;;;;;;;5.80;1.98;;;;;;;;;;4990079;28;20043;-63
2022/06/23 13:36:01;;;;;;;4.15;1.90;;;;;;;;;;4990616;28;20050;-63
2022/06/23 13:38:37;;;;;;;3.42;1.60;;;;;;;;;;4987075;28;20082;-63
2022/06/23 13:41:09;;;;;;;6.18;1.90;;;;;;;;;;4967952;28;20137;-63
2022/06/23 13:43:39;;;;;;;5.07;1.83;;;;;;;;;;4986415;28;20502;-63
2022/06/23 13:46:09;;;;;;;6.00;1.75;;;;;;;;;;4985637;28;20065;-63
2022/06/23 13:48:49;;;;;;;5.18;2.20;;;;;;;;;;4983081;28;20061;-63
2022/06/23 13:51:19;;;;;;;6.60;1.88;;;;;;;;;;4985771;28;20423;-63
2022/06/23 13:53:45;;;;;;;4.32;2.13;;;;;;;;;;4984328;28;20486;-63
2022/06/23 13:56:11;;;;;;;4.75;1.70;;;;;;;;;;4985888;28;20074;-63
2022/06/23 13:58:49;;;;;;;5.22;1.50;;;;;;;;;;4985528;28;20069;-63
2022/06/23 14:01:24;;;;;;;2.45;1.30;;;;;;;;;;4983698;28;20402;-63
2022/06/23 14:03:53;;;;;;;5.13;1.50;;;;;;;;;;4985670;28;20078;-63
2022/06/23 14:06:24;;;;;;;4.97;1.70;;;;;;;;;;4983753;28;20444;-63
2022/06/23 14:09:03;;;;;;;3.60;1.43;;;;;;;;;;4984435;28;20037;-63
2022/06/23 14:11:35;;;;;;;4.97;1.52;;;;;;;;;;4985739;28;20125;-63
2022/06/23 14:14:07;;;;;;;6.30;1.80;;;;;;;;;;4984712;28;20085;-63
2022/06/23 14:16:38;;;;;;;4.05;1.50;;;;;;;;;;4984912;28;20125;-63
2022/06/23 14:19:10;;;;;;;4.90;1.70;;;;;;;;;;4966348;28;20108;-63
2022/06/23 14:21:39;;;;;;;5.68;1.40;;;;;;;;;;4983415;28;20483;-62
2022/06/23 14:24:11;;;;;;;8.55;1.60;;;;;;;;;;4983474;28;20035;-62
2022/06/23 14:26:44;;;;;;;3.83;1.95;;;;;;;;;;4979460;28;21381;-62
2022/06/23 14:29:13;;;;;;;4.72;1.50;;;;;;;;;;4985020;28;20096;-62
2022/06/23 14:31:47;;;;;;;11.70;1.60;;;;;;;;;;4972112;28;20130;-62
2022/06/23 14:34:17;;;;;;;5.90;1.75;;;;;;;;;;4984969;28;20038;-62
2022/06/23 14:36:50;;;;;;;5.57;2.08;;;;;;;;;;4985317;28;20117;-62
2022/06/23 14:39:29;;;;;;;5.45;1.92;;;;;;;;;;4985080;28;20073;-63
2022/06/23 14:42:09;;;;;;;5.03;1.77;;;;;;;;;;4985197;28;20065;-62
2022/06/23 14:44:44;;;;;;;4.28;1.70;;;;;;;;;;4983975;28;20117;-62
2022/06/23 14:47:21;;;;;;;6.07;1.92;;;;;;;;;;4980847;28;20046;-62
2022/06/23 14:49:53;;;;;;;8.10;1.80;;;;;;;;;;4985173;28;20057;-62
2022/06/23 14:52:27;;;;;;;5.07;1.50;;;;;;;;;;4984253;28;20106;-63
2022/06/23 14:55:06;;;;;;;3.85;1.58;;;;;;;;;;4982348;28;20088;-62
2022/06/23 14:57:41;;;;;;;5.43;1.67;;;;;;;;;;4984038;28;20050;-63
2022/06/23 15:00:11;;;;;;;9.75;1.80;;;;;;;;;;4970443;28;20116;-62
2022/06/23 15:02:38;;;;;;;3.67;1.70;;;;;;;;;;4989719;28;20429;-62
2022/06/23 15:05:09;;;;;;;5.45;2.17;;;;;;;;;;4972470;28;20054;-62
2022/06/23 15:07:40;;;;;;;3.30;1.73;;;;;;;;;;4984500;28;20077;-62
2022/06/23 15:10:13;;;;;;;7.43;1.88;;;;;;;;;;4968331;28;20375;-62